createdAt,value
2022-11-22T00:02:54.487Z,98408.13
2022-11-22T00:07:56.156Z,98408.31
2022-11-22T00:12:58.149Z,98399.63
2022-11-22T00:17:59.927Z,98391.75
2022-11-22T00:23:01.686Z,98381.50
2022-11-22T00:28:03.381Z,98380.66
2022-11-22T00:33:05.101Z,98367.75
2022-11-22T00:38:06.750Z,98355.06
2022-11-22T00:43:08.381Z,98362.00
2022-11-22T00:48:10.200Z,98362.63
2022-11-22T00:53:11.811Z,98370.19
2022-11-22T00:58:13.472Z,98375.47
2022-11-22T01:03:15.099Z,98375.22
2022-11-22T01:08:16.740Z,98373.50
2022-11-22T01:13:18.371Z,98374.53
2022-11-22T01:18:20.054Z,98369.22
2022-11-22T01:23:21.730Z,98359.81
2022-11-22T01:28:23.726Z,98345.84
2022-11-22T01:33:25.492Z,98337.81
2022-11-22T01:38:27.288Z,98345.75
2022-11-22T01:43:29.424Z,98340.50
2022-11-22T01:48:49.739Z,98342.19
2022-11-22T01:53:53.387Z,98345.66
2022-11-22T01:59:02.384Z,98337.91
2022-11-22T02:04:09.527Z,98340.53
2022-11-22T02:09:12.657Z,98340.19
2022-11-22T02:14:16.466Z,98338.06
2022-11-22T02:19:36.478Z,98333.06
2022-11-22T02:24:46.805Z,98322.28
2022-11-22T02:29:48.472Z,98328.16
2022-11-22T02:34:51.407Z,98318.13
2022-11-22T02:40:02.957Z,98321.47
2022-11-22T02:45:04.979Z,98313.19
2022-11-22T02:50:07.600Z,98306.97
2022-11-22T02:55:09.274Z,98297.75
2022-11-22T03:00:11.705Z,98287.94
2022-11-22T03:05:13.486Z,98287.53
2022-11-22T03:10:16.102Z,98292.84
2022-11-22T03:15:17.939Z,98299.09
2022-11-22T03:20:19.551Z,98303.47
2022-11-22T03:25:21.260Z,98301.66
2022-11-22T03:30:23.023Z,98307.78
2022-11-22T03:35:25.097Z,98304.25
2022-11-22T03:40:27.132Z,98301.72
2022-11-22T03:45:29.739Z,98291.31
2022-11-22T03:50:31.693Z,98278.91
2022-11-22T03:55:33.813Z,98276.06
2022-11-22T04:00:36.366Z,98282.75
2022-11-22T04:05:38.011Z,98273.84
2022-11-22T04:10:39.664Z,98277.94
2022-11-22T04:15:41.465Z,98264.50
2022-11-22T04:21:01.444Z,98257.69
2022-11-22T04:26:03.164Z,98259.13
2022-11-22T04:31:23.393Z,98256.22
2022-11-22T04:36:25.088Z,98251.06
2022-11-22T04:41:26.778Z,98254.69
2022-11-22T04:46:28.377Z,98249.13
2022-11-22T04:51:48.651Z,98242.50
2022-11-22T04:56:50.279Z,98240.31
2022-11-22T05:01:52.983Z,98231.22
2022-11-22T05:06:56.714Z,98220.44
2022-11-22T05:11:58.386Z,98224.63
2022-11-22T05:17:00.092Z,98226.66
2022-11-22T05:22:01.805Z,98232.25
2022-11-22T05:27:03.553Z,98224.16
2022-11-22T05:32:05.149Z,98238.78
2022-11-22T05:37:06.797Z,98243.13
2022-11-22T05:42:08.509Z,98247.16
2022-11-22T05:47:10.629Z,98244.41
2022-11-22T05:52:12.769Z,98240.88
2022-11-22T05:57:14.395Z,98238.19
2022-11-22T06:02:16.082Z,98245.28
2022-11-22T06:07:17.843Z,98249.66
2022-11-22T06:12:19.454Z,98249.00
2022-11-22T06:17:21.154Z,98271.94
2022-11-22T06:22:22.848Z,98273.00
2022-11-22T06:27:24.486Z,98270.06
2022-11-22T06:32:26.168Z,98275.22
2022-11-22T06:37:28.887Z,98275.06
2022-11-22T06:42:30.598Z,98276.13
2022-11-22T06:47:33.441Z,98286.28
2022-11-22T06:52:35.103Z,98287.97
2022-11-22T06:57:36.810Z,98295.56
2022-11-22T07:02:38.478Z,98291.28
2022-11-22T07:07:40.188Z,98292.72
2022-11-22T07:12:41.907Z,98302.19
2022-11-22T07:17:43.525Z,98303.19
2022-11-22T07:22:47.633Z,98302.19
2022-11-22T07:27:52.116Z,98306.97
2022-11-22T07:32:53.727Z,98317.50
2022-11-22T07:37:55.332Z,98323.84
2022-11-22T07:42:58.635Z,98337.25
2022-11-22T07:48:01.476Z,98329.34
2022-11-22T07:53:03.247Z,98325.00
2022-11-22T07:58:04.940Z,98336.78
2022-11-22T08:03:09.471Z,98341.06
2022-11-22T08:08:11.723Z,98341.00
2022-11-22T08:13:13.589Z,98351.13
2022-11-22T08:18:16.060Z,98349.44
2022-11-22T08:23:17.730Z,98347.09
2022-11-22T08:28:19.466Z,98338.00
2022-11-22T08:33:21.283Z,98333.59
2022-11-22T08:38:22.936Z,98345.38
2022-11-22T08:43:25.893Z,98367.13
2022-11-22T08:48:29.470Z,98373.81
2022-11-22T08:53:33.258Z,98363.81
2022-11-22T08:58:35.456Z,98369.81
2022-11-22T09:03:37.721Z,98378.78
2022-11-22T09:08:43.028Z,98372.50
2022-11-22T09:13:47.192Z,98389.75
2022-11-22T09:18:49.373Z,98388.31
2022-11-22T09:23:53.533Z,98397.06
2022-11-22T09:28:56.877Z,98401.22
2022-11-22T09:33:58.529Z,98410.31
2022-11-22T09:39:00.188Z,98402.66
2022-11-22T09:44:04.663Z,98414.25
2022-11-22T09:49:29.441Z,98405.84
2022-11-22T09:54:41.138Z,98393.47
2022-11-22T10:06:35.807Z,98419.47
2022-11-22T10:11:49.695Z,98423.25
2022-11-22T10:17:19.936Z,98432.88
2022-11-22T10:22:21.714Z,98431.44
2022-11-22T10:27:23.331Z,98435.41
2022-11-22T10:32:30.001Z,98446.22
2022-11-22T10:37:54.001Z,98438.72
2022-11-22T10:43:31.584Z,98440.91
2022-11-22T10:48:43.819Z,98427.25
2022-11-22T10:54:03.543Z,98430.81
2022-11-22T10:59:17.677Z,98427.81
2022-11-22T11:04:21.135Z,98432.06
2022-11-22T11:10:14.886Z,98442.28
2022-11-22T11:15:30.675Z,98445.56
2022-11-22T11:20:38.649Z,98431.69
2022-11-22T11:25:43.328Z,98430.63
2022-11-22T11:31:19.241Z,98426.56
2022-11-22T11:36:24.279Z,98421.88
2022-11-22T11:41:32.623Z,98417.53
2022-11-22T11:46:40.287Z,98417.47
2022-11-22T11:51:54.081Z,98401.31
2022-11-22T11:56:56.590Z,98398.25
2022-11-22T12:02:13.512Z,98407.97
2022-11-22T12:07:18.231Z,98403.38
2022-11-22T12:12:33.234Z,98405.31
2022-11-22T12:17:39.334Z,98415.94
2022-11-22T12:23:33.046Z,98417.47
2022-11-22T12:28:35.366Z,98424.44
2022-11-22T12:33:41.994Z,98421.91
2022-11-22T12:38:45.451Z,98413.19
2022-11-22T12:43:53.747Z,98418.53
2022-11-22T12:49:01.167Z,98418.47
2022-11-22T12:54:09.146Z,98416.13
2022-11-22T12:59:10.702Z,98408.34
2022-11-22T13:04:12.280Z,98407.88
2022-11-22T13:09:33.336Z,98404.03
2022-11-22T13:14:35.149Z,98410.81
2022-11-22T13:19:46.801Z,98422.63
2022-11-22T13:25:07.438Z,98420.63
2022-11-22T13:30:21.023Z,98410.59
2022-11-22T13:35:35.183Z,98415.94
2022-11-22T13:40:42.284Z,98415.53
2022-11-22T13:45:51.591Z,98415.63
2022-11-22T13:50:53.347Z,98404.22
2022-11-22T13:55:57.006Z,98410.28
2022-11-22T14:00:59.931Z,98409.16
2022-11-22T14:06:16.288Z,98402.31
2022-11-22T14:11:30.461Z,98398.03
2022-11-22T14:16:47.648Z,98408.63
2022-11-22T14:21:59.864Z,98412.16
2022-11-22T14:27:08.161Z,98412.88
2022-11-22T14:32:22.652Z,98403.94
2022-11-22T14:37:34.330Z,98410.25
2022-11-22T14:42:37.073Z,98408.72
2022-11-22T14:47:43.394Z,98414.19
2022-11-22T14:52:48.469Z,98424.97
2022-11-22T14:58:01.128Z,98413.03
2022-11-22T15:03:02.842Z,98416.00
2022-11-22T15:09:11.234Z,98421.06
2022-11-22T15:13:50.648Z,98428.38
2022-11-22T15:58:13.931Z,98461.41
2022-11-22T16:03:24.640Z,98474.34
2022-11-22T16:08:31.038Z,98468.44
2022-11-22T16:13:36.217Z,98469.47
2022-11-22T16:18:44.067Z,98474.47
2022-11-22T16:23:47.088Z,98465.91
2022-11-22T16:28:51.549Z,98461.69
2022-11-22T16:33:55.522Z,98463.44
2022-11-22T16:38:58.740Z,98464.09
2022-11-22T16:44:02.699Z,98475.81
2022-11-22T16:49:19.214Z,98487.59
2022-11-22T16:54:21.549Z,98500.09
2022-11-22T16:59:23.145Z,98498.22
2022-11-22T17:04:26.952Z,98513.88
2022-11-22T17:09:29.067Z,98517.88
2022-11-22T17:14:31.097Z,98536.81
2022-11-22T17:24:54.680Z,98540.03
2022-11-22T17:30:05.747Z,98539.72
2022-11-22T17:35:09.979Z,98547.78
2022-11-22T17:40:13.246Z,98550.81
2022-11-22T17:45:14.852Z,98540.97
2022-11-22T17:50:16.636Z,98555.91
2022-11-22T17:55:18.286Z,98561.25
2022-11-22T18:00:24.207Z,98572.19
2022-11-22T18:05:28.529Z,98577.50
2022-11-22T18:10:30.245Z,98583.59
2022-11-22T18:15:31.894Z,98587.38
2022-11-22T18:26:38.815Z,98579.69
2022-11-22T18:31:51.689Z,98574.00
2022-11-22T18:37:00.757Z,98588.09
2022-11-22T18:42:05.190Z,98593.06
2022-11-22T18:47:07.479Z,98599.78
2022-11-22T18:52:12.012Z,98604.34
2022-11-22T18:57:16.554Z,98613.38
2022-11-22T19:02:19.964Z,98617.31
2022-11-22T19:07:21.945Z,98618.72
2022-11-22T19:12:23.598Z,98611.75
2022-11-22T19:17:25.270Z,98603.44
2022-11-22T19:22:27.087Z,98598.31
2022-11-22T19:27:28.750Z,98615.28
2022-11-22T19:32:30.364Z,98628.16
2022-11-22T19:37:32.645Z,98645.66
2022-11-22T19:42:36.109Z,98652.72
2022-11-22T19:47:37.761Z,98659.56
2022-11-22T19:52:39.518Z,98665.09
2022-11-22T19:57:41.163Z,98656.63
2022-11-22T20:02:42.966Z,98664.69
2022-11-22T20:07:44.862Z,98662.44
2022-11-22T20:12:46.943Z,98673.13
2022-11-22T20:17:48.660Z,98658.19
2022-11-22T20:22:50.415Z,98664.75
2022-11-22T20:27:52.105Z,98675.13
2022-11-22T20:32:54.269Z,98668.59
2022-11-22T20:38:00.648Z,98670.97
2022-11-22T20:43:02.212Z,98667.75
2022-11-22T20:48:04.169Z,98674.59
2022-11-22T20:53:05.785Z,98672.38
2022-11-22T20:58:07.623Z,98673.28
2022-11-22T21:03:09.298Z,98667.84
2022-11-22T21:08:10.922Z,98678.84
2022-11-22T21:13:16.184Z,98673.38
2022-11-22T21:18:26.600Z,98680.44
2022-11-22T21:23:28.256Z,98669.44
2022-11-22T21:28:30.188Z,98683.97
2022-11-22T21:33:33.782Z,98682.81
2022-11-22T21:38:35.959Z,98685.56
2022-11-22T21:43:37.860Z,98675.97
2022-11-22T21:48:39.850Z,98678.66
2022-11-22T21:53:42.022Z,98683.66
2022-11-22T21:58:43.919Z,98678.22
2022-11-22T22:03:45.809Z,98685.06
2022-11-22T22:08:47.387Z,98678.41
2022-11-22T22:13:49.208Z,98680.91
2022-11-22T22:18:50.796Z,98691.44
2022-11-22T22:23:53.661Z,98692.34
2022-11-22T22:28:55.380Z,98694.03
2022-11-22T22:33:57.669Z,98692.38
2022-11-22T22:38:59.743Z,98687.47
2022-11-22T22:44:01.493Z,98696.47
2022-11-22T22:49:03.787Z,98692.41
2022-11-22T22:54:05.567Z,98696.47
2022-11-22T22:59:07.859Z,98697.75
2022-11-22T23:04:10.038Z,98691.72
2022-11-22T23:09:12.159Z,98693.50
2022-11-22T23:14:16.247Z,98702.09
2022-11-22T23:19:17.831Z,98707.09
2022-11-22T23:24:19.532Z,98708.28
2022-11-22T23:29:21.162Z,98701.91
2022-11-22T23:34:22.854Z,98705.09
2022-11-22T23:39:24.566Z,98699.94
2022-11-22T23:44:26.150Z,98704.00
2022-11-22T23:49:27.764Z,98698.94
2022-11-22T23:54:29.342Z,98715.00
2022-11-22T23:59:31.225Z,98712.69
